sensor_id;sensor_type;location;lat;lon;timestamp;P1;durP1;ratioP1;P2;durP2;ratioP2
70899;SDS011;67902;52.154;5.430;2024-02-21T00:01:35;12.02;;;2.70;;
70899;SDS011;67902;52.154;5.430;2024-02-21T00:04:02;9.73;;;3.10;;
70899;SDS011;67902;52.154;5.430;2024-02-21T00:06:29;9.35;;;2.53;;
70899;SDS011;67902;52.154;5.430;2024-02-21T00:08:56;15.27;;;3.40;;
70899;SDS011;67902;52.154;5.430;2024-02-21T00:11:22;8.85;;;2.15;;
70899;SDS011;67902;52.154;5.430;2024-02-21T00:13:49;9.73;;;2.80;;
70899;SDS011;67902;52.154;5.430;2024-02-21T00:16:17;14.23;;;2.90;;
70899;SDS011;67902;52.154;5.430;2024-02-21T00:18:43;14.00;;;3.03;;
70899;SDS011;67902;52.154;5.430;2024-02-21T00:21:11;10.93;;;3.13;;
70899;SDS011;67902;52.154;5.430;2024-02-21T00:23:44;9.77;;;2.95;;
70899;SDS011;67902;52.154;5.430;2024-02-21T00:26:17;7.35;;;2.95;;
70899;SDS011;67902;52.154;5.430;2024-02-21T00:28:44;11.30;;;2.47;;
70899;SDS011;67902;52.154;5.430;2024-02-21T00:31:10;16.48;;;3.33;;
70899;SDS011;67902;52.154;5.430;2024-02-21T00:33:37;12.90;;;2.50;;
70899;SDS011;67902;52.154;5.430;2024-02-21T00:36:04;11.52;;;2.92;;
70899;SDS011;67902;52.154;5.430;2024-02-21T00:38:30;10.02;;;2.90;;
70899;SDS011;67902;52.154;5.430;2024-02-21T00:40:57;12.65;;;3.13;;
70899;SDS011;67902;52.154;5.430;2024-02-21T00:43:24;8.93;;;2.15;;
70899;SDS011;67902;52.154;5.430;2024-02-21T00:45:50;14.48;;;2.60;;
70899;SDS011;67902;52.154;5.430;2024-02-21T00:48:17;14.35;;;2.67;;
70899;SDS011;67902;52.154;5.430;2024-02-21T00:50:43;18.95;;;3.40;;
70899;SDS011;67902;52.154;5.430;2024-02-21T00:53:10;11.73;;;2.60;;
70899;SDS011;67902;52.154;5.430;2024-02-21T00:55:37;11.02;;;2.95;;
70899;SDS011;67902;52.154;5.430;2024-02-21T00:58:03;9.00;;;2.47;;
70899;SDS011;67902;52.154;5.430;2024-02-21T01:00:30;11.05;;;2.65;;
70899;SDS011;67902;52.154;5.430;2024-02-21T01:02:56;14.15;;;3.40;;
70899;SDS011;67902;52.154;5.430;2024-02-21T01:05:23;11.45;;;2.47;;
70899;SDS011;67902;52.154;5.430;2024-02-21T01:07:49;11.00;;;2.63;;
70899;SDS011;67902;52.154;5.430;2024-02-21T01:10:16;12.95;;;2.63;;
70899;SDS011;67902;52.154;5.430;2024-02-21T01:12:43;15.23;;;3.03;;
70899;SDS011;67902;52.154;5.430;2024-02-21T01:15:09;13.98;;;2.58;;
70899;SDS011;67902;52.154;5.430;2024-02-21T01:17:37;11.73;;;3.28;;
70899;SDS011;67902;52.154;5.430;2024-02-21T01:20:03;9.07;;;2.72;;
70899;SDS011;67902;52.154;5.430;2024-02-21T01:22:34;11.40;;;3.05;;
70899;SDS011;67902;52.154;5.430;2024-02-21T01:25:01;13.63;;;3.45;;
70899;SDS011;67902;52.154;5.430;2024-02-21T01:27:27;11.02;;;3.35;;
70899;SDS011;67902;52.154;5.430;2024-02-21T01:29:54;18.98;;;3.42;;
70899;SDS011;67902;52.154;5.430;2024-02-21T01:32:21;10.07;;;3.72;;
70899;SDS011;67902;52.154;5.430;2024-02-21T01:34:50;10.88;;;3.90;;
70899;SDS011;67902;52.154;5.430;2024-02-21T01:37:17;11.75;;;3.35;;
70899;SDS011;67902;52.154;5.430;2024-02-21T01:39:44;15.98;;;3.45;;
70899;SDS011;67902;52.154;5.430;2024-02-21T01:42:11;13.20;;;4.45;;
70899;SDS011;67902;52.154;5.430;2024-02-21T01:44:37;12.70;;;3.20;;
70899;SDS011;67902;52.154;5.430;2024-02-21T01:47:04;11.35;;;3.65;;
70899;SDS011;67902;52.154;5.430;2024-02-21T01:49:31;16.45;;;3.90;;
70899;SDS011;67902;52.154;5.430;2024-02-21T01:51:58;13.15;;;3.42;;
70899;SDS011;67902;52.154;5.430;2024-02-21T01:56:55;11.88;;;4.03;;
70899;SDS011;67902;52.154;5.430;2024-02-21T01:59:21;10.27;;;3.13;;
70899;SDS011;67902;52.154;5.430;2024-02-21T02:01:48;13.45;;;3.20;;
70899;SDS011;67902;52.154;5.430;2024-02-21T02:04:16;10.52;;;3.50;;
70899;SDS011;67902;52.154;5.430;2024-02-21T02:06:43;18.65;;;4.20;;
70899;SDS011;67902;52.154;5.430;2024-02-21T02:09:09;13.77;;;3.45;;
70899;SDS011;67902;52.154;5.430;2024-02-21T02:11:36;9.18;;;3.03;;
70899;SDS011;67902;52.154;5.430;2024-02-21T02:14:03;15.18;;;3.28;;
70899;SDS011;67902;52.154;5.430;2024-02-21T02:16:29;13.73;;;3.50;;
70899;SDS011;67902;52.154;5.430;2024-02-21T02:18:56;11.52;;;3.90;;
70899;SDS011;67902;52.154;5.430;2024-02-21T02:21:30;9.65;;;3.47;;
70899;SDS011;67902;52.154;5.430;2024-02-21T02:24:01;9.50;;;3.28;;
70899;SDS011;67902;52.154;5.430;2024-02-21T02:26:29;9.52;;;3.33;;
70899;SDS011;67902;52.154;5.430;2024-02-21T02:28:55;11.75;;;3.25;;
70899;SDS011;67902;52.154;5.430;2024-02-21T02:31:22;17.02;;;3.83;;
70899;SDS011;67902;52.154;5.430;2024-02-21T02:33:48;11.95;;;3.30;;
70899;SDS011;67902;52.154;5.430;2024-02-21T02:36:15;12.13;;;3.30;;
70899;SDS011;67902;52.154;5.430;2024-02-21T02:38:43;14.68;;;3.90;;
70899;SDS011;67902;52.154;5.430;2024-02-21T02:41:10;21.98;;;4.20;;
70899;SDS011;67902;52.154;5.430;2024-02-21T02:43:36;10.55;;;3.63;;
70899;SDS011;67902;52.154;5.430;2024-02-21T02:46:03;13.25;;;4.32;;
70899;SDS011;67902;52.154;5.430;2024-02-21T02:48:30;11.70;;;3.55;;
70899;SDS011;67902;52.154;5.430;2024-02-21T02:50:56;14.02;;;4.00;;
70899;SDS011;67902;52.154;5.430;2024-02-21T02:53:23;13.68;;;4.25;;
70899;SDS011;67902;52.154;5.430;2024-02-21T02:55:49;18.00;;;3.85;;
70899;SDS011;67902;52.154;5.430;2024-02-21T02:58:16;12.45;;;3.92;;
70899;SDS011;67902;52.154;5.430;2024-02-21T03:00:43;14.43;;;3.38;;
70899;SDS011;67902;52.154;5.430;2024-02-21T03:03:09;12.93;;;3.90;;
70899;SDS011;67902;52.154;5.430;2024-02-21T03:05:36;11.00;;;3.90;;
70899;SDS011;67902;52.154;5.430;2024-02-21T03:08:03;11.15;;;4.05;;
70899;SDS011;67902;52.154;5.430;2024-02-21T03:10:33;11.43;;;4.05;;
70899;SDS011;67902;52.154;5.430;2024-02-21T03:13:00;14.40;;;3.90;;
70899;SDS011;67902;52.154;5.430;2024-02-21T03:15:27;12.50;;;4.22;;
70899;SDS011;67902;52.154;5.430;2024-02-21T03:17:53;12.38;;;3.90;;
70899;SDS011;67902;52.154;5.430;2024-02-21T03:20:20;12.25;;;4.13;;
70899;SDS011;67902;52.154;5.430;2024-02-21T03:22:46;10.45;;;4.07;;
70899;SDS011;67902;52.154;5.430;2024-02-21T03:25:13;11.75;;;3.65;;
70899;SDS011;67902;52.154;5.430;2024-02-21T03:30:08;10.45;;;3.53;;
70899;SDS011;67902;52.154;5.430;2024-02-21T03:32:34;11.68;;;3.50;;
70899;SDS011;67902;52.154;5.430;2024-02-21T03:35:01;12.07;;;4.45;;
70899;SDS011;67902;52.154;5.430;2024-02-21T03:37:28;8.32;;;3.22;;
70899;SDS011;67902;52.154;5.430;2024-02-21T03:39:54;15.00;;;4.47;;
70899;SDS011;67902;52.154;5.430;2024-02-21T03:42:21;12.07;;;3.58;;
70899;SDS011;67902;52.154;5.430;2024-02-21T03:44:48;10.35;;;3.80;;
70899;SDS011;67902;52.154;5.430;2024-02-21T03:47:14;10.52;;;3.67;;
70899;SDS011;67902;52.154;5.430;2024-02-21T03:49:41;12.27;;;4.05;;
70899;SDS011;67902;52.154;5.430;2024-02-21T03:52:08;12.68;;;3.45;;
70899;SDS011;67902;52.154;5.430;2024-02-21T03:54:35;10.30;;;3.85;;
70899;SDS011;67902;52.154;5.430;2024-02-21T03:57:01;13.20;;;4.20;;
70899;SDS011;67902;52.154;5.430;2024-02-21T03:59:29;11.82;;;3.45;;
70899;SDS011;67902;52.154;5.430;2024-02-21T04:01:55;16.55;;;4.30;;
70899;SDS011;67902;52.154;5.430;2024-02-21T04:04:22;12.30;;;3.63;;
70899;SDS011;67902;52.154;5.430;2024-02-21T04:06:49;13.02;;;4.07;;
70899;SDS011;67902;52.154;5.430;2024-02-21T04:09:16;11.57;;;3.83;;
70899;SDS011;67902;52.154;5.430;2024-02-21T04:11:43;11.27;;;3.55;;
70899;SDS011;67902;52.154;5.430;2024-02-21T04:14:10;12.38;;;3.63;;
70899;SDS011;67902;52.154;5.430;2024-02-21T04:16:40;13.20;;;3.60;;
70899;SDS011;67902;52.154;5.430;2024-02-21T04:19:06;14.15;;;3.72;;
70899;SDS011;67902;52.154;5.430;2024-02-21T04:21:34;11.95;;;3.85;;
70899;SDS011;67902;52.154;5.430;2024-02-21T04:24:01;9.13;;;2.92;;
70899;SDS011;67902;52.154;5.430;2024-02-21T04:26:28;10.32;;;3.88;;
70899;SDS011;67902;52.154;5.430;2024-02-21T04:28:54;14.55;;;3.42;;
70899;SDS011;67902;52.154;5.430;2024-02-21T04:31:21;13.50;;;3.83;;
70899;SDS011;67902;52.154;5.430;2024-02-21T04:33:48;14.40;;;3.65;;
70899;SDS011;67902;52.154;5.430;2024-02-21T04:36:14;13.20;;;3.90;;
70899;SDS011;67902;52.154;5.430;2024-02-21T04:38:41;11.32;;;3.50;;
70899;SDS011;67902;52.154;5.430;2024-02-21T04:41:07;9.30;;;3.20;;
70899;SDS011;67902;52.154;5.430;2024-02-21T04:43:34;15.18;;;3.60;;
70899;SDS011;67902;52.154;5.430;2024-02-21T04:46:01;11.05;;;3.88;;
70899;SDS011;67902;52.154;5.430;2024-02-21T04:48:27;10.73;;;4.03;;
70899;SDS011;67902;52.154;5.430;2024-02-21T04:50:54;14.15;;;3.55;;
70899;SDS011;67902;52.154;5.430;2024-02-21T04:53:21;9.20;;;3.33;;
70899;SDS011;67902;52.154;5.430;2024-02-21T04:55:47;13.52;;;4.47;;
70899;SDS011;67902;52.154;5.430;2024-02-21T04:58:14;9.90;;;3.47;;
70899;SDS011;67902;52.154;5.430;2024-02-21T05:00:40;12.85;;;3.88;;
70899;SDS011;67902;52.154;5.430;2024-02-21T05:03:07;13.82;;;4.00;;
70899;SDS011;67902;52.154;5.430;2024-02-21T05:05:33;9.38;;;3.72;;
70899;SDS011;67902;52.154;5.430;2024-02-21T05:08:00;14.18;;;4.00;;
70899;SDS011;67902;52.154;5.430;2024-02-21T05:10:27;13.95;;;3.80;;
70899;SDS011;67902;52.154;5.430;2024-02-21T05:12:55;12.05;;;3.92;;
70899;SDS011;67902;52.154;5.430;2024-02-21T05:15:21;11.68;;;4.03;;
70899;SDS011;67902;52.154;5.430;2024-02-21T05:17:47;11.90;;;3.83;;
70899;SDS011;67902;52.154;5.430;2024-02-21T05:20:14;14.23;;;4.63;;
70899;SDS011;67902;52.154;5.430;2024-02-21T05:22:41;16.17;;;3.85;;
70899;SDS011;67902;52.154;5.430;2024-02-21T05:25:08;14.10;;;4.30;;
70899;SDS011;67902;52.154;5.430;2024-02-21T05:27:35;11.55;;;3.28;;
70899;SDS011;67902;52.154;5.430;2024-02-21T05:30:03;11.23;;;4.60;;
70899;SDS011;67902;52.154;5.430;2024-02-21T05:34:57;9.93;;;3.40;;
70899;SDS011;67902;52.154;5.430;2024-02-21T05:37:24;10.70;;;3.70;;
70899;SDS011;67902;52.154;5.430;2024-02-21T05:39:51;13.90;;;5.10;;
70899;SDS011;67902;52.154;5.430;2024-02-21T05:42:17;11.63;;;4.65;;
70899;SDS011;67902;52.154;5.430;2024-02-21T05:44:44;17.35;;;4.68;;
70899;SDS011;67902;52.154;5.430;2024-02-21T05:47:10;15.88;;;4.20;;
70899;SDS011;67902;52.154;5.430;2024-02-21T05:49:39;14.88;;;4.45;;
70899;SDS011;67902;52.154;5.430;2024-02-21T05:52:06;13.05;;;5.20;;
70899;SDS011;67902;52.154;5.430;2024-02-21T05:54:32;11.80;;;3.92;;
70899;SDS011;67902;52.154;5.430;2024-02-21T05:56:59;14.07;;;5.20;;
70899;SDS011;67902;52.154;5.430;2024-02-21T05:59:25;11.98;;;4.28;;
70899;SDS011;67902;52.154;5.430;2024-02-21T06:01:56;12.23;;;4.30;;
70899;SDS011;67902;52.154;5.430;2024-02-21T06:04:24;11.48;;;4.20;;
70899;SDS011;67902;52.154;5.430;2024-02-21T06:06:50;17.25;;;4.53;;
70899;SDS011;67902;52.154;5.430;2024-02-21T06:09:17;12.30;;;4.32;;
70899;SDS011;67902;52.154;5.430;2024-02-21T06:11:43;19.55;;;5.15;;
70899;SDS011;67902;52.154;5.430;2024-02-21T06:14:12;13.40;;;4.07;;
70899;SDS011;67902;52.154;5.430;2024-02-21T06:16:39;12.02;;;5.78;;
70899;SDS011;67902;52.154;5.430;2024-02-21T06:19:06;15.13;;;5.32;;
70899;SDS011;67902;52.154;5.430;2024-02-21T06:21:35;14.13;;;5.65;;
70899;SDS011;67902;52.154;5.430;2024-02-21T06:24:03;12.95;;;4.63;;
70899;SDS011;67902;52.154;5.430;2024-02-21T06:26:29;13.75;;;4.90;;
70899;SDS011;67902;52.154;5.430;2024-02-21T06:28:56;15.10;;;5.00;;
70899;SDS011;67902;52.154;5.430;2024-02-21T06:31:23;16.35;;;5.40;;
70899;SDS011;67902;52.154;5.430;2024-02-21T06:33:50;15.18;;;5.65;;
70899;SDS011;67902;52.154;5.430;2024-02-21T06:36:16;14.55;;;5.90;;
70899;SDS011;67902;52.154;5.430;2024-02-21T06:38:43;12.68;;;5.07;;
70899;SDS011;67902;52.154;5.430;2024-02-21T06:41:18;16.45;;;5.60;;
70899;SDS011;67902;52.154;5.430;2024-02-21T06:43:46;15.00;;;6.50;;
70899;SDS011;67902;52.154;5.430;2024-02-21T06:46:25;22.63;;;6.93;;
70899;SDS011;67902;52.154;5.430;2024-02-21T06:48:53;17.88;;;6.10;;
70899;SDS011;67902;52.154;5.430;2024-02-21T06:51:20;19.65;;;7.90;;
70899;SDS011;67902;52.154;5.430;2024-02-21T06:53:46;17.95;;;7.85;;
70899;SDS011;67902;52.154;5.430;2024-02-21T06:56:13;20.80;;;7.63;;
70899;SDS011;67902;52.154;5.430;2024-02-21T06:58:39;16.42;;;6.82;;
70899;SDS011;67902;52.154;5.430;2024-02-21T07:01:06;20.25;;;7.28;;
70899;SDS011;67902;52.154;5.430;2024-02-21T07:03:32;18.20;;;7.53;;
70899;SDS011;67902;52.154;5.430;2024-02-21T07:05:59;20.77;;;7.72;;
70899;SDS011;67902;52.154;5.430;2024-02-21T07:08:26;25.13;;;7.47;;
70899;SDS011;67902;52.154;5.430;2024-02-21T07:10:53;20.85;;;7.85;;
70899;SDS011;67902;52.154;5.430;2024-02-21T07:13:20;19.65;;;8.70;;
70899;SDS011;67902;52.154;5.430;2024-02-21T07:15:48;21.02;;;7.78;;
70899;SDS011;67902;52.154;5.430;2024-02-21T07:18:14;17.48;;;6.93;;
70899;SDS011;67902;52.154;5.430;2024-02-21T07:20:42;24.02;;;8.35;;
70899;SDS011;67902;52.154;5.430;2024-02-21T07:23:08;17.90;;;7.43;;
70899;SDS011;67902;52.154;5.430;2024-02-21T07:25:35;19.67;;;7.90;;
70899;SDS011;67902;52.154;5.430;2024-02-21T07:28:02;23.40;;;8.27;;
70899;SDS011;67902;52.154;5.430;2024-02-21T07:30:29;20.35;;;7.22;;
70899;SDS011;67902;52.154;5.430;2024-02-21T07:32:55;24.90;;;9.48;;
70899;SDS011;67902;52.154;5.430;2024-02-21T07:35:22;23.42;;;9.10;;
70899;SDS011;67902;52.154;5.430;2024-02-21T07:37:48;16.95;;;6.47;;
70899;SDS011;67902;52.154;5.430;2024-02-21T07:40:15;16.98;;;6.57;;
70899;SDS011;67902;52.154;5.430;2024-02-21T07:42:42;14.20;;;5.03;;
70899;SDS011;67902;52.154;5.430;2024-02-21T07:45:13;18.13;;;6.97;;
70899;SDS011;67902;52.154;5.430;2024-02-21T07:47:40;18.52;;;7.57;;
70899;SDS011;67902;52.154;5.430;2024-02-21T07:50:07;19.38;;;6.82;;
70899;SDS011;67902;52.154;5.430;2024-02-21T07:52:34;17.77;;;6.10;;
70899;SDS011;67902;52.154;5.430;2024-02-21T07:55:00;17.92;;;6.57;;
70899;SDS011;67902;52.154;5.430;2024-02-21T07:57:27;20.40;;;6.20;;
70899;SDS011;67902;52.154;5.430;2024-02-21T07:59:54;14.48;;;5.22;;
70899;SDS011;67902;52.154;5.430;2024-02-21T08:02:20;14.23;;;5.18;;
70899;SDS011;67902;52.154;5.430;2024-02-21T08:04:47;18.23;;;5.43;;
70899;SDS011;67902;52.154;5.430;2024-02-21T08:07:13;17.48;;;6.35;;
70899;SDS011;67902;52.154;5.430;2024-02-21T08:09:40;18.98;;;6.15;;
70899;SDS011;67902;52.154;5.430;2024-02-21T08:12:06;15.38;;;5.25;;
70899;SDS011;67902;52.154;5.430;2024-02-21T08:14:33;10.73;;;4.65;;
70899;SDS011;67902;52.154;5.430;2024-02-21T08:16:59;13.25;;;4.85;;
70899;SDS011;67902;52.154;5.430;2024-02-21T08:19:26;21.40;;;5.68;;
70899;SDS011;67902;52.154;5.430;2024-02-21T08:21:53;15.85;;;5.97;;
70899;SDS011;67902;52.154;5.430;2024-02-21T08:24:19;14.18;;;5.38;;
70899;SDS011;67902;52.154;5.430;2024-02-21T08:26:46;16.33;;;6.40;;
70899;SDS011;67902;52.154;5.430;2024-02-21T08:29:13;14.52;;;6.15;;
70899;SDS011;67902;52.154;5.430;2024-02-21T08:31:39;21.92;;;6.72;;
70899;SDS011;67902;52.154;5.430;2024-02-21T08:34:06;15.02;;;5.43;;
70899;SDS011;67902;52.154;5.430;2024-02-21T08:36:33;20.45;;;6.78;;
70899;SDS011;67902;52.154;5.430;2024-02-21T08:39:01;18.15;;;6.57;;
70899;SDS011;67902;52.154;5.430;2024-02-21T08:41:31;19.83;;;7.18;;
70899;SDS011;67902;52.154;5.430;2024-02-21T08:44:17;16.40;;;5.80;;
70899;SDS011;67902;52.154;5.430;2024-02-21T08:46:43;16.55;;;6.65;;
70899;SDS011;67902;52.154;5.430;2024-02-21T08:49:10;17.80;;;7.57;;
70899;SDS011;67902;52.154;5.430;2024-02-21T08:51:37;16.38;;;6.70;;
70899;SDS011;67902;52.154;5.430;2024-02-21T08:54:03;17.35;;;6.47;;
70899;SDS011;67902;52.154;5.430;2024-02-21T08:56:30;15.70;;;5.90;;
70899;SDS011;67902;52.154;5.430;2024-02-21T08:58:57;16.73;;;6.15;;
70899;SDS011;67902;52.154;5.430;2024-02-21T09:01:24;12.40;;;4.88;;
70899;SDS011;67902;52.154;5.430;2024-02-21T09:03:52;17.88;;;6.95;;
70899;SDS011;67902;52.154;5.430;2024-02-21T09:06:20;16.58;;;6.40;;
70899;SDS011;67902;52.154;5.430;2024-02-21T09:08:46;20.48;;;6.63;;
70899;SDS011;67902;52.154;5.430;2024-02-21T09:11:13;19.77;;;6.45;;
70899;SDS011;67902;52.154;5.430;2024-02-21T09:13:40;18.25;;;6.03;;
70899;SDS011;67902;52.154;5.430;2024-02-21T09:16:06;16.42;;;6.18;;
70899;SDS011;67902;52.154;5.430;2024-02-21T09:18:33;14.52;;;5.30;;
70899;SDS011;67902;52.154;5.430;2024-02-21T09:20:59;21.80;;;6.10;;
70899;SDS011;67902;52.154;5.430;2024-02-21T09:23:26;13.25;;;5.72;;
70899;SDS011;67902;52.154;5.430;2024-02-21T09:25:53;10.88;;;4.30;;
70899;SDS011;67902;52.154;5.430;2024-02-21T09:28:21;14.63;;;6.20;;
70899;SDS011;67902;52.154;5.430;2024-02-21T09:30:48;10.50;;;3.95;;
70899;SDS011;67902;52.154;5.430;2024-02-21T09:33:15;15.13;;;4.78;;
70899;SDS011;67902;52.154;5.430;2024-02-21T09:35:57;13.73;;;5.60;;
70899;SDS011;67902;52.154;5.430;2024-02-21T09:38:23;17.83;;;5.03;;
70899;SDS011;67902;52.154;5.430;2024-02-21T09:40:59;12.07;;;4.97;;
70899;SDS011;67902;52.154;5.430;2024-02-21T09:43:35;19.23;;;5.47;;
70899;SDS011;67902;52.154;5.430;2024-02-21T09:46:06;13.88;;;5.10;;
70899;SDS011;67902;52.154;5.430;2024-02-21T09:48:47;12.50;;;4.85;;
70899;SDS011;67902;52.154;5.430;2024-02-21T09:51:35;13.85;;;4.53;;
70899;SDS011;67902;52.154;5.430;2024-02-21T09:54:04;16.35;;;4.88;;
70899;SDS011;67902;52.154;5.430;2024-02-21T09:56:42;13.63;;;5.03;;
70899;SDS011;67902;52.154;5.430;2024-02-21T09:59:10;9.20;;;3.97;;
70899;SDS011;67902;52.154;5.430;2024-02-21T10:01:37;11.27;;;4.75;;
70899;SDS011;67902;52.154;5.430;2024-02-21T10:04:04;17.52;;;5.10;;
70899;SDS011;67902;52.154;5.430;2024-02-21T10:06:31;13.35;;;4.43;;
70899;SDS011;67902;52.154;5.430;2024-02-21T10:08:58;17.33;;;5.15;;
70899;SDS011;67902;52.154;5.430;2024-02-21T10:11:25;10.63;;;4.30;;
70899;SDS011;67902;52.154;5.430;2024-02-21T10:14:04;11.65;;;4.57;;
70899;SDS011;67902;52.154;5.430;2024-02-21T10:16:32;11.48;;;4.35;;
70899;SDS011;67902;52.154;5.430;2024-02-21T10:21:26;13.52;;;3.90;;
70899;SDS011;67902;52.154;5.430;2024-02-21T10:23:53;11.75;;;4.38;;
70899;SDS011;67902;52.154;5.430;2024-02-21T10:26:20;8.60;;;3.70;;
70899;SDS011;67902;52.154;5.430;2024-02-21T10:28:47;10.75;;;3.95;;
70899;SDS011;67902;52.154;5.430;2024-02-21T10:31:24;10.50;;;4.35;;
70899;SDS011;67902;52.154;5.430;2024-02-21T10:33:55;9.13;;;3.65;;
70899;SDS011;67902;52.154;5.430;2024-02-21T10:36:25;15.30;;;3.70;;
70899;SDS011;67902;52.154;5.430;2024-02-21T10:38:52;11.90;;;3.92;;
70899;SDS011;67902;52.154;5.430;2024-02-21T10:41:21;8.68;;;3.53;;
70899;SDS011;67902;52.154;5.430;2024-02-21T10:43:49;8.95;;;3.97;;
70899;SDS011;67902;52.154;5.430;2024-02-21T10:46:22;10.45;;;4.07;;
70899;SDS011;67902;52.154;5.430;2024-02-21T10:48:54;8.27;;;2.83;;
70899;SDS011;67902;52.154;5.430;2024-02-21T10:51:33;8.77;;;3.33;;
70899;SDS011;67902;52.154;5.430;2024-02-21T10:56:50;10.05;;;3.75;;
70899;SDS011;67902;52.154;5.430;2024-02-21T11:01:44;9.15;;;3.38;;
70899;SDS011;67902;52.154;5.430;2024-02-21T11:04:11;9.20;;;3.88;;
70899;SDS011;67902;52.154;5.430;2024-02-21T11:06:39;9.13;;;3.17;;
70899;SDS011;67902;52.154;5.430;2024-02-21T11:09:08;13.10;;;3.60;;
70899;SDS011;67902;52.154;5.430;2024-02-21T11:11:43;9.05;;;3.92;;
70899;SDS011;67902;52.154;5.430;2024-02-21T11:14:11;8.27;;;3.20;;
70899;SDS011;67902;52.154;5.430;2024-02-21T11:16:44;8.85;;;3.67;;
70899;SDS011;67902;52.154;5.430;2024-02-21T11:19:27;10.27;;;3.75;;
70899;SDS011;67902;52.154;5.430;2024-02-21T11:21:55;10.90;;;4.03;;
70899;SDS011;67902;52.154;5.430;2024-02-21T11:29:48;8.10;;;3.08;;
70899;SDS011;67902;52.154;5.430;2024-02-21T11:32:18;12.07;;;4.13;;
70899;SDS011;67902;52.154;5.430;2024-02-21T11:34:54;9.10;;;3.92;;
70899;SDS011;67902;52.154;5.430;2024-02-21T11:37:29;12.93;;;4.28;;
70899;SDS011;67902;52.154;5.430;2024-02-21T11:42:27;10.60;;;3.80;;
70899;SDS011;67902;52.154;5.430;2024-02-21T11:44:55;10.40;;;3.88;;
70899;SDS011;67902;52.154;5.430;2024-02-21T11:47:27;11.05;;;5.10;;
70899;SDS011;67902;52.154;5.430;2024-02-21T11:49:55;11.57;;;3.92;;
70899;SDS011;67902;52.154;5.430;2024-02-21T11:52:22;10.98;;;4.47;;
70899;SDS011;67902;52.154;5.430;2024-02-21T11:54:51;11.52;;;4.18;;
70899;SDS011;67902;52.154;5.430;2024-02-21T11:57:18;11.50;;;3.90;;
70899;SDS011;67902;52.154;5.430;2024-02-21T11:59:45;13.10;;;4.65;;
70899;SDS011;67902;52.154;5.430;2024-02-21T12:02:13;12.75;;;4.72;;
70899;SDS011;67902;52.154;5.430;2024-02-21T12:04:41;12.07;;;4.40;;
70899;SDS011;67902;52.154;5.430;2024-02-21T12:07:09;13.70;;;4.38;;
70899;SDS011;67902;52.154;5.430;2024-02-21T12:09:36;12.48;;;4.57;;
70899;SDS011;67902;52.154;5.430;2024-02-21T12:12:03;10.63;;;4.13;;
70899;SDS011;67902;52.154;5.430;2024-02-21T12:14:32;12.15;;;4.57;;
70899;SDS011;67902;52.154;5.430;2024-02-21T12:17:00;10.50;;;3.78;;
70899;SDS011;67902;52.154;5.430;2024-02-21T12:19:31;13.82;;;5.10;;
70899;SDS011;67902;52.154;5.430;2024-02-21T12:21:59;15.13;;;4.97;;
70899;SDS011;67902;52.154;5.430;2024-02-21T12:24:26;9.60;;;4.13;;
70899;SDS011;67902;52.154;5.430;2024-02-21T12:26:54;16.52;;;4.85;;
70899;SDS011;67902;52.154;5.430;2024-02-21T12:29:23;10.45;;;4.45;;
70899;SDS011;67902;52.154;5.430;2024-02-21T12:31:53;13.80;;;4.53;;
70899;SDS011;67902;52.154;5.430;2024-02-21T12:34:21;13.45;;;4.55;;
70899;SDS011;67902;52.154;5.430;2024-02-21T12:37:03;14.88;;;4.75;;
70899;SDS011;67902;52.154;5.430;2024-02-21T12:39:30;10.63;;;4.35;;
70899;SDS011;67902;52.154;5.430;2024-02-21T12:41:58;11.85;;;3.90;;
70899;SDS011;67902;52.154;5.430;2024-02-21T12:44:24;12.65;;;4.60;;
70899;SDS011;67902;52.154;5.430;2024-02-21T12:46:51;9.65;;;4.40;;
70899;SDS011;67902;52.154;5.430;2024-02-21T12:49:20;14.20;;;5.15;;
70899;SDS011;67902;52.154;5.430;2024-02-21T12:51:47;14.13;;;4.47;;
70899;SDS011;67902;52.154;5.430;2024-02-21T12:54:13;9.98;;;4.70;;
70899;SDS011;67902;52.154;5.430;2024-02-21T12:56:40;12.88;;;3.40;;
70899;SDS011;67902;52.154;5.430;2024-02-21T12:59:07;10.07;;;3.83;;
70899;SDS011;67902;52.154;5.430;2024-02-21T13:01:36;11.27;;;4.53;;
70899;SDS011;67902;52.154;5.430;2024-02-21T13:04:04;10.68;;;3.95;;
70899;SDS011;67902;52.154;5.430;2024-02-21T13:06:30;9.23;;;3.92;;
70899;SDS011;67902;52.154;5.430;2024-02-21T13:08:57;10.10;;;4.60;;
70899;SDS011;67902;52.154;5.430;2024-02-21T13:11:25;13.18;;;4.30;;
70899;SDS011;67902;52.154;5.430;2024-02-21T13:13:54;10.27;;;4.10;;
70899;SDS011;67902;52.154;5.430;2024-02-21T13:16:21;10.07;;;4.10;;
70899;SDS011;67902;52.154;5.430;2024-02-21T13:18:48;10.68;;;4.40;;
70899;SDS011;67902;52.154;5.430;2024-02-21T13:21:15;7.60;;;3.40;;
70899;SDS011;67902;52.154;5.430;2024-02-21T13:23:42;8.00;;;3.33;;
70899;SDS011;67902;52.154;5.430;2024-02-21T13:26:10;7.90;;;3.17;;
70899;SDS011;67902;52.154;5.430;2024-02-21T13:28:37;11.45;;;4.10;;
70899;SDS011;67902;52.154;5.430;2024-02-21T13:31:04;8.02;;;3.22;;
70899;SDS011;67902;52.154;5.430;2024-02-21T13:33:30;9.95;;;3.88;;
70899;SDS011;67902;52.154;5.430;2024-02-21T13:35:57;10.05;;;3.67;;
70899;SDS011;67902;52.154;5.430;2024-02-21T13:38:24;11.82;;;3.97;;
70899;SDS011;67902;52.154;5.430;2024-02-21T13:40:51;10.27;;;3.55;;
70899;SDS011;67902;52.154;5.430;2024-02-21T13:43:20;11.70;;;3.30;;
70899;SDS011;67902;52.154;5.430;2024-02-21T13:48:25;8.52;;;3.35;;
70899;SDS011;67902;52.154;5.430;2024-02-21T13:50:51;9.65;;;3.15;;
70899;SDS011;67902;52.154;5.430;2024-02-21T13:53:18;8.25;;;3.08;;
70899;SDS011;67902;52.154;5.430;2024-02-21T13:55:45;9.25;;;3.35;;
70899;SDS011;67902;52.154;5.430;2024-02-21T13:58:11;9.45;;;2.95;;
70899;SDS011;67902;52.154;5.430;2024-02-21T14:00:38;9.65;;;3.33;;
70899;SDS011;67902;52.154;5.430;2024-02-21T14:03:05;8.63;;;2.88;;
70899;SDS011;67902;52.154;5.430;2024-02-21T14:05:33;8.63;;;2.65;;
70899;SDS011;67902;52.154;5.430;2024-02-21T14:08:00;10.48;;;2.90;;
70899;SDS011;67902;52.154;5.430;2024-02-21T14:10:26;13.60;;;3.00;;
70899;SDS011;67902;52.154;5.430;2024-02-21T14:12:54;10.82;;;3.28;;
70899;SDS011;67902;52.154;5.430;2024-02-21T14:15:21;11.65;;;3.53;;
70899;SDS011;67902;52.154;5.430;2024-02-21T14:17:47;10.63;;;2.80;;
70899;SDS011;67902;52.154;5.430;2024-02-21T14:20:14;7.47;;;2.70;;
70899;SDS011;67902;52.154;5.430;2024-02-21T14:22:43;8.30;;;3.10;;
70899;SDS011;67902;52.154;5.430;2024-02-21T14:25:09;11.13;;;3.00;;
70899;SDS011;67902;52.154;5.430;2024-02-21T14:27:36;9.13;;;2.72;;
70899;SDS011;67902;52.154;5.430;2024-02-21T14:30:03;12.57;;;3.15;;
70899;SDS011;67902;52.154;5.430;2024-02-21T14:32:30;10.00;;;3.42;;
70899;SDS011;67902;52.154;5.430;2024-02-21T14:34:57;8.43;;;2.92;;
70899;SDS011;67902;52.154;5.430;2024-02-21T14:37:25;8.07;;;2.88;;
70899;SDS011;67902;52.154;5.430;2024-02-21T14:39:52;11.65;;;3.40;;
70899;SDS011;67902;52.154;5.430;2024-02-21T14:42:18;8.77;;;2.78;;
70899;SDS011;67902;52.154;5.430;2024-02-21T14:44:45;8.40;;;2.60;;
70899;SDS011;67902;52.154;5.430;2024-02-21T14:47:11;7.57;;;2.78;;
70899;SDS011;67902;52.154;5.430;2024-02-21T14:49:38;7.85;;;2.85;;
70899;SDS011;67902;52.154;5.430;2024-02-21T14:52:04;7.82;;;2.40;;
70899;SDS011;67902;52.154;5.430;2024-02-21T14:54:31;7.03;;;2.50;;
70899;SDS011;67902;52.154;5.430;2024-02-21T14:56:57;8.05;;;2.17;;
70899;SDS011;67902;52.154;5.430;2024-02-21T14:59:24;10.70;;;3.38;;
70899;SDS011;67902;52.154;5.430;2024-02-21T15:01:59;10.60;;;2.97;;
70899;SDS011;67902;52.154;5.430;2024-02-21T15:04:26;6.82;;;2.78;;